• Join FlightAware (Why Join?)
  • Login
  • US Flag 
Rudolph Flight #1: Arrived! 
01:25PM EST


 

Airport Tracker/Info


-or-


 

Live Flight TrackerFlight Track Log ✈ KAP5 ✈ 22-Jun-2013 ✈ KBOS - KALB

Flight Track Log - Related Links

Times and Time Zones

All times are in EDT time to prevent confusion due to time zone crossing. See the KAP5 flight status page for this flight to view local times or setup timezone preferences in your user account.

Time Position Orientation Groundspeed Altitude Reporting Facility
EDT Latitude Longitude Course Direction KTS MPH feet Rate Location/Type
05:22PM 42.3667 -71.0167 270° West 111 128 500  Level KA90
05:23PM 42.3500 -71.0667 246° West 106 122 2,100 1,080 Climbing KA90
05:24PM 42.3500 -71.1000 270° West 112 129 3,000 900 Climbing KA90
05:25PM 42.3500 -71.1500 270° West 121 139 4,000 840 Climbing KA90
05:26PM 42.3333 -71.2000 246° West 123 142 4,700 600 Climbing KA90
05:27PM 42.3333 -71.2333 270° West 114 131 5,300 600 Climbing KA90
05:28PM 42.3167 -71.3232 270° West  Level FlightAware Approximate
05:28PM 42.3333 -71.2833 270° West 114 131 6,000  Level KA90
05:29PM 42.3167 -71.3167 236° Southwest 111 128 6,600 600 Climbing KA90
05:30PM 42.3167 -71.3667 270° West 110 127 7,300 600 Climbing KA90
05:31PM 42.3167 -71.4000 270° West 117 135 7,900 300 Climbing KA90
05:32PM 42.3044 -71.4631 255° West 143 165 8,000  Climbing Boston Center
05:33PM 42.3006 -71.5053 263° West 159 183 8,000  Level Boston Center
05:34PM 42.2950 -71.5672 263° West 164 189 8,000  Level Boston Center
05:35PM 42.2869 -71.6289 260° West 168 193 8,000  Level Boston Center
05:36PM 42.2811 -71.6908 263° West 167 192 8,000  Level Boston Center
05:37PM 42.2733 -71.7556 261° West 166 191 8,000  Level Boston Center
05:38PM 42.2653 -71.8172 260° West 164 189 8,000  Level Boston Center
05:39PM 42.2678 -71.8789 273° West 161 185 8,000  Level Boston Center
05:40PM 42.2681 -71.9350 270° West 156 180 8,000  Level Boston Center
05:41PM 42.2703 -71.9939 273° West 153 176 8,000  Level Boston Center
05:42PM 42.2706 -72.0500 270° West 153 176 8,000  Level Boston Center
05:43PM 42.2792 -72.1089 281° West 155 178 8,000  Level Boston Center
05:44PM 42.2939 -72.1650 290° West 154 177 8,000  Level Boston Center
05:45PM 42.3106 -72.2211 292° West 153 176 8,000  Level Boston Center
05:46PM 42.3253 -72.2744 290° West 150 173 8,000  Level Boston Center
05:47PM 42.3400 -72.3278 290° West 147 169 8,000  Level Boston Center
05:48PM 42.3525 -72.3728 291° West 148 170 8,000  Level Boston Center
05:49PM 42.3692 -72.4289 292° West 149 171 8,000  Level Boston Center
05:50PM 42.3836 -72.4794 291° West 150 173 8,000  Level Boston Center
05:51PM 42.3983 -72.5356 290° West 149 171 8,000  Level Boston Center
05:52PM 42.4128 -72.5892 290° West 151 174 8,000  Level Boston Center
05:53PM 42.4272 -72.6397 291° West 151 174 8,100  Climbing Boston Center
05:54PM 42.4439 -72.6906 294° West 151 174 8,100  Level Boston Center
05:55PM 42.4603 -72.7497 291° West 151 174 8,100  Level Boston Center
05:56PM 42.4708 -72.7892 290° West 151 174 8,100  Level Boston Center
05:57PM 42.4872 -72.8400 294° West 150 173 8,100  Level Boston Center
05:58PM 42.5017 -72.8906 291° West 151 174 8,100  Level Boston Center
05:59PM 42.5161 -72.9442 290° West 152 175 8,100  Level Boston Center
06:00PM 42.5303 -73.0008 289° West 152 175 8,100  Level Boston Center
06:01PM 42.5447 -73.0544 290° West 152 175 8,100 -120 Level Boston Center
06:02PM 42.5611 -73.1108 292° West 153 176 7,900 -360 Descending Boston Center
06:03PM 42.5772 -73.1731 289° West 168 193 7,400 -540 Descending Boston Center
06:04PM 42.5956 -73.2356 292° West 175 201 6,800 -600 Descending Boston Center
06:05PM 42.6119 -73.2978 290° West 173 199 6,200 -600 Descending Boston Center
06:06PM 42.6300 -73.3572 292° West 172 198 5,700 -600 Descending Boston Center
06:07PM 42.6442 -73.4222 287° West 173 199 5,100 -600 Descending Boston Center
06:08PM 42.6625 -73.4764 295° West 174 200 4,600 -600 Descending Boston Center
06:09PM 42.6786 -73.5414 289° West 175 201 4,000 -480 Descending Boston Center
06:10PM 42.6906 -73.5925 288° West 174 200 3,700 -420 Descending Boston Center
06:11PM 42.7189 -73.6581 300° West 177 204 3,200 -660 Descending Boston Center
06:12PM 42.7392 -73.7206 294° West 185 213 2,400 -840 Descending Boston Center
06:13PM 42.7783 -73.7639 321° Northwest 187 215 1,600 -840 Descending Boston Center
06:14PM 42.7758 -73.8036 265° West 125 144 800 -840 Descending Boston Center
06:16PM 42.7491 -73.8020 177° South  Level Estimated
06:23PM 42.7491 -73.8020 304° West  Level Estimated
06:24PM 42.7491 -73.8020 304° West  Level Estimated
06:25PM 42.7491 -73.8020 304° West  Level Estimated